sensor_id;sensor_type;location;lat;lon;timestamp;P1;durP1;ratioP1;P2;durP2;ratioP2
2992;SDS011;1506;48.932;9.478;2022-08-21T00:02:02;5.03;;;3.53;;
2992;SDS011;1506;48.932;9.478;2022-08-21T00:04:30;3.67;;;3.47;;
2992;SDS011;1506;48.932;9.478;2022-08-21T00:06:57;4.33;;;4.13;;
2992;SDS011;1506;48.932;9.478;2022-08-21T00:09:26;3.70;;;3.50;;
2992;SDS011;1506;48.932;9.478;2022-08-21T00:11:53;4.37;;;4.07;;
2992;SDS011;1506;48.932;9.478;2022-08-21T00:14:20;4.77;;;4.43;;
2992;SDS011;1506;48.932;9.478;2022-08-21T00:16:47;8.70;;;5.43;;
2992;SDS011;1506;48.932;9.478;2022-08-21T00:19:14;4.60;;;4.20;;
2992;SDS011;1506;48.932;9.478;2022-08-21T00:21:41;4.47;;;4.20;;
2992;SDS011;1506;48.932;9.478;2022-08-21T00:24:10;6.73;;;6.07;;
2992;SDS011;1506;48.932;9.478;2022-08-21T00:26:38;5.20;;;4.80;;
2992;SDS011;1506;48.932;9.478;2022-08-21T00:29:05;5.00;;;4.70;;
2992;SDS011;1506;48.932;9.478;2022-08-21T00:31:32;4.73;;;4.53;;
2992;SDS011;1506;48.932;9.478;2022-08-21T00:33:59;6.13;;;4.77;;
2992;SDS011;1506;48.932;9.478;2022-08-21T00:36:27;5.00;;;4.80;;
2992;SDS011;1506;48.932;9.478;2022-08-21T00:38:55;4.63;;;4.43;;
2992;SDS011;1506;48.932;9.478;2022-08-21T00:41:23;4.40;;;4.10;;
2992;SDS011;1506;48.932;9.478;2022-08-21T00:44:05;4.40;;;4.00;;
2992;SDS011;1506;48.932;9.478;2022-08-21T00:46:35;5.67;;;4.13;;
2992;SDS011;1506;48.932;9.478;2022-08-21T00:49:04;4.40;;;4.10;;
2992;SDS011;1506;48.932;9.478;2022-08-21T00:51:38;3.77;;;3.43;;
2992;SDS011;1506;48.932;9.478;2022-08-21T00:54:10;6.80;;;3.87;;
2992;SDS011;1506;48.932;9.478;2022-08-21T00:56:44;4.23;;;3.93;;
2992;SDS011;1506;48.932;9.478;2022-08-21T00:59:32;4.37;;;4.17;;
2992;SDS011;1506;48.932;9.478;2022-08-21T01:02:03;4.30;;;3.87;;
2992;SDS011;1506;48.932;9.478;2022-08-21T01:04:33;3.97;;;3.67;;
2992;SDS011;1506;48.932;9.478;2022-08-21T01:07:00;6.93;;;3.20;;
2992;SDS011;1506;48.932;9.478;2022-08-21T01:09:28;3.97;;;3.77;;
2992;SDS011;1506;48.932;9.478;2022-08-21T01:11:55;3.40;;;3.20;;
2992;SDS011;1506;48.932;9.478;2022-08-21T01:14:23;3.17;;;2.97;;
2992;SDS011;1506;48.932;9.478;2022-08-21T01:16:51;6.60;;;3.00;;
2992;SDS011;1506;48.932;9.478;2022-08-21T01:19:20;3.00;;;2.90;;
2992;SDS011;1506;48.932;9.478;2022-08-21T01:21:49;4.37;;;3.40;;
2992;SDS011;1506;48.932;9.478;2022-08-21T01:24:16;4.20;;;3.90;;
2992;SDS011;1506;48.932;9.478;2022-08-21T01:26:44;3.70;;;3.50;;
2992;SDS011;1506;48.932;9.478;2022-08-21T01:29:22;5.27;;;3.87;;
2992;SDS011;1506;48.932;9.478;2022-08-21T01:32:24;3.60;;;3.40;;
2992;SDS011;1506;48.932;9.478;2022-08-21T01:34:51;3.50;;;2.50;;
2992;SDS011;1506;48.932;9.478;2022-08-21T01:37:20;3.20;;;3.10;;
2992;SDS011;1506;48.932;9.478;2022-08-21T01:39:48;5.70;;;3.03;;
2992;SDS011;1506;48.932;9.478;2022-08-21T01:42:15;3.53;;;3.20;;
2992;SDS011;1506;48.932;9.478;2022-08-21T01:44:42;2.90;;;2.80;;
2992;SDS011;1506;48.932;9.478;2022-08-21T01:47:11;8.23;;;3.97;;
2992;SDS011;1506;48.932;9.478;2022-08-21T01:49:40;3.40;;;3.20;;
2992;SDS011;1506;48.932;9.478;2022-08-21T01:52:09;2.60;;;2.50;;
2992;SDS011;1506;48.932;9.478;2022-08-21T01:54:37;3.37;;;3.17;;
2992;SDS011;1506;48.932;9.478;2022-08-21T01:57:05;3.83;;;3.63;;
2992;SDS011;1506;48.932;9.478;2022-08-21T01:59:33;3.33;;;3.13;;
2992;SDS011;1506;48.932;9.478;2022-08-21T02:02:01;3.30;;;3.10;;
2992;SDS011;1506;48.932;9.478;2022-08-21T02:04:29;3.67;;;3.37;;
2992;SDS011;1506;48.932;9.478;2022-08-21T02:06:57;4.03;;;3.67;;
2992;SDS011;1506;48.932;9.478;2022-08-21T02:09:25;3.70;;;3.50;;
2992;SDS011;1506;48.932;9.478;2022-08-21T02:11:54;2.97;;;2.77;;
2992;SDS011;1506;48.932;9.478;2022-08-21T02:14:22;3.20;;;3.00;;
2992;SDS011;1506;48.932;9.478;2022-08-21T02:16:57;3.73;;;3.53;;
2992;SDS011;1506;48.932;9.478;2022-08-21T02:19:34;8.30;;;3.13;;
2992;SDS011;1506;48.932;9.478;2022-08-21T02:22:06;2.83;;;2.73;;
2992;SDS011;1506;48.932;9.478;2022-08-21T02:24:36;3.67;;;3.47;;
2992;SDS011;1506;48.932;9.478;2022-08-21T02:27:21;3.60;;;3.40;;
2992;SDS011;1506;48.932;9.478;2022-08-21T02:29:52;3.67;;;3.40;;
2992;SDS011;1506;48.932;9.478;2022-08-21T02:32:24;3.03;;;2.93;;
2992;SDS011;1506;48.932;9.478;2022-08-21T02:34:52;2.77;;;2.57;;
2992;SDS011;1506;48.932;9.478;2022-08-21T02:37:19;3.67;;;3.47;;
2992;SDS011;1506;48.932;9.478;2022-08-21T02:39:49;7.40;;;3.93;;
2992;SDS011;1506;48.932;9.478;2022-08-21T02:42:16;3.10;;;2.90;;
2992;SDS011;1506;48.932;9.478;2022-08-21T02:44:43;3.70;;;3.50;;
2992;SDS011;1506;48.932;9.478;2022-08-21T02:47:10;3.43;;;3.33;;
2992;SDS011;1506;48.932;9.478;2022-08-21T02:49:37;3.80;;;3.50;;
2992;SDS011;1506;48.932;9.478;2022-08-21T02:52:04;3.83;;;3.53;;
2992;SDS011;1506;48.932;9.478;2022-08-21T02:54:32;3.27;;;2.97;;
2992;SDS011;1506;48.932;9.478;2022-08-21T02:56:59;3.47;;;3.30;;
2992;SDS011;1506;48.932;9.478;2022-08-21T02:59:26;3.33;;;3.23;;
2992;SDS011;1506;48.932;9.478;2022-08-21T03:01:53;3.80;;;3.50;;
2992;SDS011;1506;48.932;9.478;2022-08-21T03:04:22;4.33;;;4.03;;
2992;SDS011;1506;48.932;9.478;2022-08-21T03:06:49;3.43;;;3.23;;
2992;SDS011;1506;48.932;9.478;2022-08-21T03:09:16;4.17;;;3.97;;
2992;SDS011;1506;48.932;9.478;2022-08-21T03:11:43;3.20;;;3.00;;
2992;SDS011;1506;48.932;9.478;2022-08-21T03:14:10;3.60;;;3.40;;
2992;SDS011;1506;48.932;9.478;2022-08-21T03:16:37;3.10;;;2.80;;
2992;SDS011;1506;48.932;9.478;2022-08-21T03:19:04;3.50;;;3.30;;
2992;SDS011;1506;48.932;9.478;2022-08-21T03:21:31;2.97;;;2.87;;
2992;SDS011;1506;48.932;9.478;2022-08-21T03:23:59;3.77;;;3.60;;
2992;SDS011;1506;48.932;9.478;2022-08-21T03:26:29;10.40;;;3.07;;
2992;SDS011;1506;48.932;9.478;2022-08-21T03:28:57;4.03;;;3.20;;
2992;SDS011;1506;48.932;9.478;2022-08-21T03:31:24;6.30;;;3.20;;
2992;SDS011;1506;48.932;9.478;2022-08-21T03:33:57;3.07;;;2.83;;
2992;SDS011;1506;48.932;9.478;2022-08-21T03:36:24;3.13;;;2.93;;
2992;SDS011;1506;48.932;9.478;2022-08-21T03:38:52;2.80;;;2.60;;
2992;SDS011;1506;48.932;9.478;2022-08-21T03:41:19;4.30;;;2.97;;
2992;SDS011;1506;48.932;9.478;2022-08-21T03:43:47;3.73;;;3.03;;
2992;SDS011;1506;48.932;9.478;2022-08-21T03:46:14;3.10;;;3.00;;
2992;SDS011;1506;48.932;9.478;2022-08-21T03:48:41;2.33;;;2.23;;
2992;SDS011;1506;48.932;9.478;2022-08-21T03:51:08;2.77;;;2.57;;
2992;SDS011;1506;48.932;9.478;2022-08-21T03:53:35;3.00;;;2.80;;
2992;SDS011;1506;48.932;9.478;2022-08-21T03:56:03;3.30;;;3.10;;
2992;SDS011;1506;48.932;9.478;2022-08-21T03:58:31;3.20;;;3.00;;
2992;SDS011;1506;48.932;9.478;2022-08-21T04:00:59;2.97;;;2.87;;
2992;SDS011;1506;48.932;9.478;2022-08-21T04:03:27;5.80;;;2.80;;
2992;SDS011;1506;48.932;9.478;2022-08-21T04:05:55;2.97;;;2.77;;
2992;SDS011;1506;48.932;9.478;2022-08-21T04:08:22;2.90;;;2.80;;
2992;SDS011;1506;48.932;9.478;2022-08-21T04:10:50;3.77;;;3.20;;
2992;SDS011;1506;48.932;9.478;2022-08-21T04:13:20;9.13;;;3.20;;
2992;SDS011;1506;48.932;9.478;2022-08-21T04:15:48;2.43;;;2.23;;
2992;SDS011;1506;48.932;9.478;2022-08-21T04:18:15;3.20;;;3.00;;
2992;SDS011;1506;48.932;9.478;2022-08-21T04:20:43;5.07;;;2.37;;
2992;SDS011;1506;48.932;9.478;2022-08-21T04:23:16;3.00;;;2.80;;
2992;SDS011;1506;48.932;9.478;2022-08-21T04:25:50;12.30;;;3.37;;
2992;SDS011;1506;48.932;9.478;2022-08-21T04:28:18;2.60;;;2.50;;
2992;SDS011;1506;48.932;9.478;2022-08-21T04:30:48;3.17;;;3.07;;
2992;SDS011;1506;48.932;9.478;2022-08-21T04:33:18;3.67;;;3.33;;
2992;SDS011;1506;48.932;9.478;2022-08-21T04:35:47;3.97;;;3.77;;
2992;SDS011;1506;48.932;9.478;2022-08-21T04:38:15;3.53;;;3.33;;
2992;SDS011;1506;48.932;9.478;2022-08-21T04:40:42;7.43;;;3.73;;
2992;SDS011;1506;48.932;9.478;2022-08-21T04:43:10;3.00;;;2.80;;
2992;SDS011;1506;48.932;9.478;2022-08-21T04:45:42;3.20;;;3.00;;
2992;SDS011;1506;48.932;9.478;2022-08-21T04:48:12;5.70;;;2.67;;
2992;SDS011;1506;48.932;9.478;2022-08-21T04:50:43;8.10;;;3.67;;
2992;SDS011;1506;48.932;9.478;2022-08-21T04:56:23;3.40;;;3.20;;
2992;SDS011;1506;48.932;9.478;2022-08-21T04:58:58;4.23;;;2.90;;
2992;SDS011;1506;48.932;9.478;2022-08-21T05:01:31;7.27;;;3.00;;
2992;SDS011;1506;48.932;9.478;2022-08-21T05:04:02;9.27;;;2.97;;
2992;SDS011;1506;48.932;9.478;2022-08-21T05:06:36;4.30;;;2.70;;
2992;SDS011;1506;48.932;9.478;2022-08-21T05:09:07;3.80;;;3.60;;
2992;SDS011;1506;48.932;9.478;2022-08-21T05:11:36;4.07;;;3.43;;
2992;SDS011;1506;48.932;9.478;2022-08-21T05:14:03;4.47;;;4.10;;
2992;SDS011;1506;48.932;9.478;2022-08-21T05:16:30;3.73;;;3.63;;
2992;SDS011;1506;48.932;9.478;2022-08-21T05:19:04;4.17;;;3.87;;
2992;SDS011;1506;48.932;9.478;2022-08-21T05:21:32;3.97;;;3.77;;
2992;SDS011;1506;48.932;9.478;2022-08-21T05:24:06;3.20;;;3.10;;
2992;SDS011;1506;48.932;9.478;2022-08-21T05:26:34;3.07;;;2.97;;
2992;SDS011;1506;48.932;9.478;2022-08-21T05:29:11;3.10;;;2.97;;
2992;SDS011;1506;48.932;9.478;2022-08-21T05:31:41;6.37;;;2.80;;
2992;SDS011;1506;48.932;9.478;2022-08-21T05:34:09;2.60;;;2.50;;
2992;SDS011;1506;48.932;9.478;2022-08-21T05:36:41;2.13;;;2.03;;
2992;SDS011;1506;48.932;9.478;2022-08-21T05:39:08;2.43;;;2.07;;
2992;SDS011;1506;48.932;9.478;2022-08-21T05:41:35;8.87;;;1.40;;
2992;SDS011;1506;48.932;9.478;2022-08-21T05:44:02;2.27;;;2.17;;
2992;SDS011;1506;48.932;9.478;2022-08-21T05:46:35;1.50;;;1.40;;
2992;SDS011;1506;48.932;9.478;2022-08-21T05:49:02;1.73;;;1.63;;
2992;SDS011;1506;48.932;9.478;2022-08-21T05:51:30;1.90;;;1.80;;
2992;SDS011;1506;48.932;9.478;2022-08-21T05:53:57;1.60;;;1.50;;
2992;SDS011;1506;48.932;9.478;2022-08-21T05:56:24;2.07;;;1.87;;
2992;SDS011;1506;48.932;9.478;2022-08-21T05:58:51;1.80;;;1.70;;
2992;SDS011;1506;48.932;9.478;2022-08-21T06:01:18;2.30;;;2.20;;
2992;SDS011;1506;48.932;9.478;2022-08-21T06:03:45;2.00;;;1.90;;
2992;SDS011;1506;48.932;9.478;2022-08-21T06:06:13;2.70;;;1.70;;
2992;SDS011;1506;48.932;9.478;2022-08-21T06:08:40;2.20;;;2.10;;
2992;SDS011;1506;48.932;9.478;2022-08-21T06:11:07;2.00;;;1.90;;
2992;SDS011;1506;48.932;9.478;2022-08-21T06:13:36;1.63;;;1.53;;
2992;SDS011;1506;48.932;9.478;2022-08-21T06:18:41;5.13;;;1.83;;
2992;SDS011;1506;48.932;9.478;2022-08-21T06:21:11;2.13;;;2.03;;
2992;SDS011;1506;48.932;9.478;2022-08-21T06:23:40;1.87;;;1.77;;
2992;SDS011;1506;48.932;9.478;2022-08-21T06:26:08;3.23;;;2.00;;
2992;SDS011;1506;48.932;9.478;2022-08-21T06:28:39;2.17;;;1.97;;
2992;SDS011;1506;48.932;9.478;2022-08-21T06:31:40;2.23;;;2.03;;
2992;SDS011;1506;48.932;9.478;2022-08-21T06:34:00;2.87;;;2.77;;
2992;SDS011;1506;48.932;9.478;2022-08-21T06:36:27;2.37;;;2.27;;
2992;SDS011;1506;48.932;9.478;2022-08-21T06:38:55;2.20;;;2.10;;
2992;SDS011;1506;48.932;9.478;2022-08-21T06:41:23;2.60;;;2.50;;
2992;SDS011;1506;48.932;9.478;2022-08-21T06:43:52;2.47;;;2.00;;
2992;SDS011;1506;48.932;9.478;2022-08-21T06:46:21;1.63;;;1.50;;
2992;SDS011;1506;48.932;9.478;2022-08-21T06:48:53;5.07;;;1.80;;
2992;SDS011;1506;48.932;9.478;2022-08-21T06:51:21;2.33;;;2.23;;
2992;SDS011;1506;48.932;9.478;2022-08-21T06:53:48;3.47;;;1.70;;
2992;SDS011;1506;48.932;9.478;2022-08-21T06:56:16;1.80;;;1.70;;
2992;SDS011;1506;48.932;9.478;2022-08-21T06:58:43;2.00;;;1.90;;
2992;SDS011;1506;48.932;9.478;2022-08-21T07:01:10;1.63;;;1.53;;
2992;SDS011;1506;48.932;9.478;2022-08-21T07:03:39;2.07;;;1.97;;
2992;SDS011;1506;48.932;9.478;2022-08-21T07:06:09;2.20;;;2.00;;
2992;SDS011;1506;48.932;9.478;2022-08-21T07:08:37;6.97;;;2.00;;
2992;SDS011;1506;48.932;9.478;2022-08-21T07:11:07;1.90;;;1.80;;
2992;SDS011;1506;48.932;9.478;2022-08-21T07:13:41;2.27;;;2.17;;
2992;SDS011;1506;48.932;9.478;2022-08-21T07:16:08;2.10;;;2.00;;
2992;SDS011;1506;48.932;9.478;2022-08-21T07:18:36;2.60;;;2.40;;
2992;SDS011;1506;48.932;9.478;2022-08-21T07:21:05;3.00;;;2.30;;
2992;SDS011;1506;48.932;9.478;2022-08-21T07:23:34;2.27;;;2.17;;
2992;SDS011;1506;48.932;9.478;2022-08-21T07:26:08;6.57;;;2.90;;
2992;SDS011;1506;48.932;9.478;2022-08-21T07:28:37;2.47;;;1.93;;
2992;SDS011;1506;48.932;9.478;2022-08-21T07:31:05;2.03;;;1.93;;
2992;SDS011;1506;48.932;9.478;2022-08-21T07:33:33;1.90;;;1.80;;
2992;SDS011;1506;48.932;9.478;2022-08-21T07:36:01;7.40;;;2.23;;
2992;SDS011;1506;48.932;9.478;2022-08-21T07:38:29;3.83;;;2.13;;
2992;SDS011;1506;48.932;9.478;2022-08-21T07:40:56;1.90;;;1.80;;
2992;SDS011;1506;48.932;9.478;2022-08-21T07:43:25;2.60;;;2.40;;
2992;SDS011;1506;48.932;9.478;2022-08-21T07:45:53;2.50;;;2.30;;
2992;SDS011;1506;48.932;9.478;2022-08-21T07:48:21;4.53;;;2.17;;
2992;SDS011;1506;48.932;9.478;2022-08-21T07:50:49;5.10;;;2.00;;
2992;SDS011;1506;48.932;9.478;2022-08-21T07:53:17;3.10;;;2.00;;
2992;SDS011;1506;48.932;9.478;2022-08-21T07:55:44;5.93;;;2.60;;
2992;SDS011;1506;48.932;9.478;2022-08-21T07:58:12;2.70;;;2.40;;
2992;SDS011;1506;48.932;9.478;2022-08-21T08:00:39;10.43;;;4.00;;
2992;SDS011;1506;48.932;9.478;2022-08-21T08:03:07;3.40;;;2.67;;
2992;SDS011;1506;48.932;9.478;2022-08-21T08:05:35;7.90;;;2.97;;
2992;SDS011;1506;48.932;9.478;2022-08-21T08:08:03;2.90;;;2.70;;
2992;SDS011;1506;48.932;9.478;2022-08-21T08:10:30;5.10;;;3.33;;
2992;SDS011;1506;48.932;9.478;2022-08-21T08:12:58;5.20;;;2.77;;
2992;SDS011;1506;48.932;9.478;2022-08-21T08:15:26;5.13;;;3.17;;
2992;SDS011;1506;48.932;9.478;2022-08-21T08:17:55;2.47;;;2.30;;
2992;SDS011;1506;48.932;9.478;2022-08-21T08:20:24;3.87;;;3.30;;
2992;SDS011;1506;48.932;9.478;2022-08-21T08:22:55;3.40;;;3.10;;
2992;SDS011;1506;48.932;9.478;2022-08-21T08:25:23;3.97;;;3.63;;
2992;SDS011;1506;48.932;9.478;2022-08-21T08:28:01;3.60;;;3.10;;
2992;SDS011;1506;48.932;9.478;2022-08-21T08:30:41;6.67;;;2.93;;
2992;SDS011;1506;48.932;9.478;2022-08-21T08:33:09;3.60;;;3.40;;
2992;SDS011;1506;48.932;9.478;2022-08-21T08:35:36;3.70;;;3.10;;
2992;SDS011;1506;48.932;9.478;2022-08-21T08:38:04;3.03;;;2.83;;
2992;SDS011;1506;48.932;9.478;2022-08-21T08:40:35;3.97;;;3.67;;
2992;SDS011;1506;48.932;9.478;2022-08-21T08:43:18;4.50;;;3.67;;
2992;SDS011;1506;48.932;9.478;2022-08-21T08:45:47;4.43;;;4.13;;
2992;SDS011;1506;48.932;9.478;2022-08-21T08:51:10;5.03;;;3.40;;
2992;SDS011;1506;48.932;9.478;2022-08-21T08:56:40;3.80;;;3.50;;
2992;SDS011;1506;48.932;9.478;2022-08-21T08:59:13;3.50;;;3.20;;
2992;SDS011;1506;48.932;9.478;2022-08-21T09:01:45;3.10;;;2.90;;
2992;SDS011;1506;48.932;9.478;2022-08-21T09:04:13;3.27;;;3.07;;
2992;SDS011;1506;48.932;9.478;2022-08-21T09:09:44;5.77;;;4.00;;
2992;SDS011;1506;48.932;9.478;2022-08-21T09:17:59;4.57;;;3.80;;
2992;SDS011;1506;48.932;9.478;2022-08-21T09:20:47;4.83;;;4.43;;
2992;SDS011;1506;48.932;9.478;2022-08-21T09:26:26;4.37;;;3.93;;
2992;SDS011;1506;48.932;9.478;2022-08-21T09:29:02;4.13;;;3.83;;
2992;SDS011;1506;48.932;9.478;2022-08-21T09:31:31;4.17;;;3.77;;
2992;SDS011;1506;48.932;9.478;2022-08-21T09:34:10;4.37;;;4.17;;
2992;SDS011;1506;48.932;9.478;2022-08-21T09:36:41;3.93;;;3.60;;
2992;SDS011;1506;48.932;9.478;2022-08-21T09:39:21;3.53;;;3.33;;
2992;SDS011;1506;48.932;9.478;2022-08-21T09:41:55;5.17;;;3.57;;
2992;SDS011;1506;48.932;9.478;2022-08-21T09:44:31;4.73;;;2.80;;
2992;SDS011;1506;48.932;9.478;2022-08-21T09:47:02;3.33;;;3.00;;
2992;SDS011;1506;48.932;9.478;2022-08-21T09:49:30;5.90;;;3.00;;
2992;SDS011;1506;48.932;9.478;2022-08-21T09:52:06;3.23;;;2.93;;
2992;SDS011;1506;48.932;9.478;2022-08-21T09:54:53;3.03;;;2.93;;
2992;SDS011;1506;48.932;9.478;2022-08-21T09:57:25;3.80;;;3.40;;
2992;SDS011;1506;48.932;9.478;2022-08-21T10:00:20;3.10;;;2.90;;
2992;SDS011;1506;48.932;9.478;2022-08-21T10:03:07;6.23;;;3.23;;
2992;SDS011;1506;48.932;9.478;2022-08-21T10:05:39;3.17;;;2.97;;
2992;SDS011;1506;48.932;9.478;2022-08-21T10:08:19;5.00;;;2.47;;
2992;SDS011;1506;48.932;9.478;2022-08-21T10:10:50;2.93;;;2.20;;
2992;SDS011;1506;48.932;9.478;2022-08-21T10:13:27;3.60;;;3.27;;
2992;SDS011;1506;48.932;9.478;2022-08-21T10:22:33;2.90;;;2.63;;
2992;SDS011;1506;48.932;9.478;2022-08-21T10:45:09;6.03;;;2.70;;
2992;SDS011;1506;48.932;9.478;2022-08-21T10:55:18;4.33;;;2.70;;
2992;SDS011;1506;48.932;9.478;2022-08-21T10:58:26;5.40;;;3.13;;
2992;SDS011;1506;48.932;9.478;2022-08-21T11:01:22;5.73;;;2.30;;
2992;SDS011;1506;48.932;9.478;2022-08-21T11:03:59;3.83;;;2.37;;
2992;SDS011;1506;48.932;9.478;2022-08-21T11:06:45;3.93;;;2.30;;
2992;SDS011;1506;48.932;9.478;2022-08-21T11:09:16;2.73;;;2.40;;
2992;SDS011;1506;48.932;9.478;2022-08-21T11:15:07;3.27;;;2.27;;
2992;SDS011;1506;48.932;9.478;2022-08-21T11:20:50;3.40;;;2.63;;
2992;SDS011;1506;48.932;9.478;2022-08-21T11:26:15;2.73;;;2.60;;
2992;SDS011;1506;48.932;9.478;2022-08-21T11:29:03;4.60;;;3.03;;
2992;SDS011;1506;48.932;9.478;2022-08-21T11:45:32;2.67;;;2.47;;
2992;SDS011;1506;48.932;9.478;2022-08-21T11:48:38;2.90;;;2.80;;
2992;SDS011;1506;48.932;9.478;2022-08-21T11:51:12;5.00;;;2.57;;
2992;SDS011;1506;48.932;9.478;2022-08-21T11:56:41;4.13;;;2.93;;
2992;SDS011;1506;48.932;9.478;2022-08-21T11:59:21;3.40;;;2.60;;
2992;SDS011;1506;48.932;9.478;2022-08-21T12:01:53;2.33;;;2.23;;
2992;SDS011;1506;48.932;9.478;2022-08-21T12:04:28;3.50;;;1.97;;
2992;SDS011;1506;48.932;9.478;2022-08-21T12:07:13;3.13;;;2.47;;
2992;SDS011;1506;48.932;9.478;2022-08-21T12:09:51;3.90;;;2.70;;
2992;SDS011;1506;48.932;9.478;2022-08-21T12:12:26;2.27;;;2.17;;
2992;SDS011;1506;48.932;9.478;2022-08-21T12:17:50;5.17;;;2.20;;
2992;SDS011;1506;48.932;9.478;2022-08-21T12:26:02;2.97;;;2.00;;
2992;SDS011;1506;48.932;9.478;2022-08-21T12:28:37;2.80;;;2.10;;
2992;SDS011;1506;48.932;9.478;2022-08-21T12:31:16;3.23;;;3.13;;
2992;SDS011;1506;48.932;9.478;2022-08-21T12:33:55;2.53;;;2.43;;
2992;SDS011;1506;48.932;9.478;2022-08-21T12:39:49;2.33;;;2.13;;
2992;SDS011;1506;48.932;9.478;2022-08-21T12:42:30;2.23;;;2.13;;
2992;SDS011;1506;48.932;9.478;2022-08-21T12:45:51;1.80;;;1.70;;
2992;SDS011;1506;48.932;9.478;2022-08-21T12:48:09;2.30;;;2.20;;
2992;SDS011;1506;48.932;9.478;2022-08-21T12:50:46;2.50;;;1.97;;
2992;SDS011;1506;48.932;9.478;2022-08-21T12:56:04;4.60;;;1.87;;
2992;SDS011;1506;48.932;9.478;2022-08-21T12:58:39;2.43;;;2.20;;
2992;SDS011;1506;48.932;9.478;2022-08-21T13:01:19;2.27;;;1.57;;
2992;SDS011;1506;48.932;9.478;2022-08-21T13:04:32;2.10;;;1.90;;
2992;SDS011;1506;48.932;9.478;2022-08-21T13:07:11;11.77;;;2.07;;
2992;SDS011;1506;48.932;9.478;2022-08-21T13:12:19;2.23;;;2.03;;
2992;SDS011;1506;48.932;9.478;2022-08-21T13:14:48;3.13;;;2.93;;
2992;SDS011;1506;48.932;9.478;2022-08-21T13:17:17;2.23;;;1.77;;
2992;SDS011;1506;48.932;9.478;2022-08-21T13:19:55;5.00;;;2.23;;
2992;SDS011;1506;48.932;9.478;2022-08-21T13:22:24;2.07;;;1.97;;
2992;SDS011;1506;48.932;9.478;2022-08-21T13:25:01;2.50;;;2.40;;
2992;SDS011;1506;48.932;9.478;2022-08-21T13:27:32;2.57;;;2.37;;
2992;SDS011;1506;48.932;9.478;2022-08-21T13:30:05;2.00;;;1.90;;
2992;SDS011;1506;48.932;9.478;2022-08-21T13:32:42;5.80;;;2.33;;
2992;SDS011;1506;48.932;9.478;2022-08-21T13:35:22;2.17;;;1.77;;
2992;SDS011;1506;48.932;9.478;2022-08-21T13:38:03;2.50;;;1.50;;
2992;SDS011;1506;48.932;9.478;2022-08-21T13:40:40;2.30;;;2.20;;
2992;SDS011;1506;48.932;9.478;2022-08-21T13:43:14;3.60;;;2.17;;
2992;SDS011;1506;48.932;9.478;2022-08-21T13:45:49;2.07;;;1.97;;
2992;SDS011;1506;48.932;9.478;2022-08-21T13:48:17;2.30;;;2.20;;
2992;SDS011;1506;48.932;9.478;2022-08-21T13:50:46;3.40;;;2.27;;
2992;SDS011;1506;48.932;9.478;2022-08-21T13:53:23;4.73;;;1.80;;
2992;SDS011;1506;48.932;9.478;2022-08-21T13:55:59;4.10;;;2.30;;
2992;SDS011;1506;48.932;9.478;2022-08-21T13:58:49;2.40;;;2.20;;
2992;SDS011;1506;48.932;9.478;2022-08-21T14:01:22;2.00;;;1.90;;
2992;SDS011;1506;48.932;9.478;2022-08-21T14:04:03;2.43;;;2.23;;
2992;SDS011;1506;48.932;9.478;2022-08-21T14:06:35;5.23;;;2.30;;
2992;SDS011;1506;48.932;9.478;2022-08-21T14:09:08;2.00;;;1.90;;
2992;SDS011;1506;48.932;9.478;2022-08-21T14:11:37;2.40;;;2.30;;
2992;SDS011;1506;48.932;9.478;2022-08-21T14:14:18;2.17;;;2.07;;
2992;SDS011;1506;48.932;9.478;2022-08-21T14:17:01;4.20;;;2.20;;
2992;SDS011;1506;48.932;9.478;2022-08-21T14:19:50;2.73;;;2.53;;
2992;SDS011;1506;48.932;9.478;2022-08-21T14:27:38;2.53;;;1.87;;
2992;SDS011;1506;48.932;9.478;2022-08-21T14:30:38;10.63;;;2.50;;
2992;SDS011;1506;48.932;9.478;2022-08-21T14:33:09;2.77;;;1.90;;
2992;SDS011;1506;48.932;9.478;2022-08-21T14:35:38;3.07;;;1.93;;
2992;SDS011;1506;48.932;9.478;2022-08-21T14:38:16;2.10;;;1.90;;
2992;SDS011;1506;48.932;9.478;2022-08-21T14:40:49;2.47;;;1.73;;
2992;SDS011;1506;48.932;9.478;2022-08-21T14:43:21;2.70;;;2.03;;
2992;SDS011;1506;48.932;9.478;2022-08-21T14:45:50;2.37;;;2.00;;
2992;SDS011;1506;48.932;9.478;2022-08-21T14:48:18;2.20;;;2.00;;
2992;SDS011;1506;48.932;9.478;2022-08-21T14:50:45;2.60;;;1.93;;
2992;SDS011;1506;48.932;9.478;2022-08-21T14:53:13;2.00;;;1.80;;
2992;SDS011;1506;48.932;9.478;2022-08-21T14:55:41;3.10;;;2.00;;
2992;SDS011;1506;48.932;9.478;2022-08-21T14:58:27;2.00;;;1.90;;
2992;SDS011;1506;48.932;9.478;2022-08-21T15:00:55;2.07;;;1.87;;
2992;SDS011;1506;48.932;9.478;2022-08-21T15:03:25;2.27;;;2.07;;
2992;SDS011;1506;48.932;9.478;2022-08-21T15:05:52;2.60;;;2.50;;
2992;SDS011;1506;48.932;9.478;2022-08-21T15:08:20;2.30;;;2.13;;
2992;SDS011;1506;48.932;9.478;2022-08-21T15:10:48;2.53;;;2.33;;
2992;SDS011;1506;48.932;9.478;2022-08-21T15:13:35;2.03;;;1.70;;
2992;SDS011;1506;48.932;9.478;2022-08-21T15:16:03;1.70;;;1.60;;
2992;SDS011;1506;48.932;9.478;2022-08-21T15:18:31;3.83;;;2.20;;
2992;SDS011;1506;48.932;9.478;2022-08-21T15:20:58;3.30;;;2.00;;
2992;SDS011;1506;48.932;9.478;2022-08-21T15:23:26;3.50;;;2.10;;
2992;SDS011;1506;48.932;9.478;2022-08-21T15:25:53;2.63;;;1.77;;
2992;SDS011;1506;48.932;9.478;2022-08-21T15:28:25;1.87;;;1.77;;
2992;SDS011;1506;48.932;9.478;2022-08-21T15:30:56;2.27;;;2.07;;
2992;SDS011;1506;48.932;9.478;2022-08-21T15:33:25;1.90;;;1.80;;
2992;SDS011;1506;48.932;9.478;2022-08-21T15:35:53;6.20;;;1.40;;
2992;SDS011;1506;48.932;9.478;2022-08-21T15:38:20;1.73;;;1.63;;
2992;SDS011;1506;48.932;9.478;2022-08-21T15:40:48;2.33;;;2.10;;
2992;SDS011;1506;48.932;9.478;2022-08-21T15:43:22;2.03;;;1.87;;
2992;SDS011;1506;48.932;9.478;2022-08-21T15:46:10;1.97;;;1.80;;
2992;SDS011;1506;48.932;9.478;2022-08-21T15:48:39;4.50;;;4.07;;
2992;SDS011;1506;48.932;9.478;2022-08-21T15:51:08;2.70;;;2.37;;
2992;SDS011;1506;48.932;9.478;2022-08-21T15:53:36;2.10;;;2.00;;
2992;SDS011;1506;48.932;9.478;2022-08-21T15:56:06;3.30;;;2.17;;
2992;SDS011;1506;48.932;9.478;2022-08-21T15:58:49;3.23;;;1.80;;
2992;SDS011;1506;48.932;9.478;2022-08-21T16:01:18;5.10;;;2.63;;
2992;SDS011;1506;48.932;9.478;2022-08-21T16:03:47;2.90;;;1.93;;
2992;SDS011;1506;48.932;9.478;2022-08-21T16:06:16;4.60;;;1.80;;
2992;SDS011;1506;48.932;9.478;2022-08-21T16:09:03;2.97;;;1.67;;
2992;SDS011;1506;48.932;9.478;2022-08-21T16:11:30;2.00;;;1.87;;
2992;SDS011;1506;48.932;9.478;2022-08-21T16:13:59;3.80;;;1.50;;
2992;SDS011;1506;48.932;9.478;2022-08-21T16:16:26;3.70;;;3.40;;
2992;SDS011;1506;48.932;9.478;2022-08-21T16:18:56;1.67;;;1.57;;
2992;SDS011;1506;48.932;9.478;2022-08-21T16:21:24;1.73;;;1.63;;
2992;SDS011;1506;48.932;9.478;2022-08-21T16:23:51;1.83;;;1.73;;
2992;SDS011;1506;48.932;9.478;2022-08-21T16:26:21;1.87;;;1.77;;
2992;SDS011;1506;48.932;9.478;2022-08-21T16:28:48;1.60;;;1.50;;
2992;SDS011;1506;48.932;9.478;2022-08-21T16:31:21;2.77;;;2.57;;
2992;SDS011;1506;48.932;9.478;2022-08-21T16:33:51;2.20;;;2.07;;
2992;SDS011;1506;48.932;9.478;2022-08-21T16:36:23;2.80;;;2.23;;
2992;SDS011;1506;48.932;9.478;2022-08-21T16:38:54;1.93;;;1.83;;
2992;SDS011;1506;48.932;9.478;2022-08-21T16:41:23;2.23;;;2.03;;
2992;SDS011;1506;48.932;9.478;2022-08-21T16:43:52;2.03;;;1.80;;
2992;SDS011;1506;48.932;9.478;2022-08-21T16:46:20;1.80;;;1.70;;
2992;SDS011;1506;48.932;9.478;2022-08-21T16:48:48;2.87;;;2.73;;
2992;SDS011;1506;48.932;9.478;2022-08-21T16:51:16;3.30;;;3.00;;
2992;SDS011;1506;48.932;9.478;2022-08-21T16:53:43;5.23;;;3.23;;
2992;SDS011;1506;48.932;9.478;2022-08-21T16:56:11;2.77;;;2.57;;
2992;SDS011;1506;48.932;9.478;2022-08-21T16:58:40;2.70;;;2.20;;
2992;SDS011;1506;48.932;9.478;2022-08-21T17:01:09;1.93;;;1.83;;
2992;SDS011;1506;48.932;9.478;2022-08-21T17:03:41;2.50;;;2.17;;
2992;SDS011;1506;48.932;9.478;2022-08-21T17:06:11;2.53;;;2.37;;
2992;SDS011;1506;48.932;9.478;2022-08-21T17:08:40;3.50;;;2.80;;
2992;SDS011;1506;48.932;9.478;2022-08-21T17:11:11;1.90;;;1.80;;
2992;SDS011;1506;48.932;9.478;2022-08-21T17:14:07;2.27;;;2.00;;
2992;SDS011;1506;48.932;9.478;2022-08-21T17:16:45;2.10;;;2.00;;
2992;SDS011;1506;48.932;9.478;2022-08-21T17:19:15;8.30;;;2.10;;
2992;SDS011;1506;48.932;9.478;2022-08-21T17:21:43;3.37;;;2.87;;
2992;SDS011;1506;48.932;9.478;2022-08-21T17:24:11;1.80;;;1.70;;
2992;SDS011;1506;48.932;9.478;2022-08-21T17:26:41;2.50;;;2.40;;
2992;SDS011;1506;48.932;9.478;2022-08-21T17:29:09;2.30;;;1.80;;